createdAt,value
2023-02-19T00:00:49.964Z,6.79
2023-02-19T00:03:58.987Z,6.95
2023-02-19T00:07:01.701Z,7.13
2023-02-19T00:10:04.843Z,7.04
2023-02-19T00:13:08.848Z,6.74
2023-02-19T00:16:18.281Z,6.19
2023-02-19T00:19:21.593Z,5.98
2023-02-19T00:22:24.799Z,5.67
2023-02-19T00:25:27.486Z,5.40
2023-02-19T00:28:30.560Z,5.21
2023-02-19T00:31:35.514Z,5.07
2023-02-19T00:34:38.635Z,4.97
2023-02-19T00:37:41.245Z,4.93
2023-02-19T00:40:44.283Z,5.18
2023-02-19T00:44:00.450Z,5.92
2023-02-19T00:47:03.555Z,6.25
2023-02-19T00:50:06.790Z,6.53
2023-02-19T00:53:10.009Z,6.57
2023-02-19T00:56:12.892Z,6.45
2023-02-19T00:59:16.101Z,6.18
2023-02-19T01:02:19.252Z,6.03
2023-02-19T01:05:22.252Z,6.02
2023-02-19T01:08:25.305Z,6.00
2023-02-19T01:11:28.420Z,6.10
2023-02-19T01:14:31.156Z,6.28
2023-02-19T01:17:36.524Z,6.52
2023-02-19T01:20:44.729Z,6.57
2023-02-19T01:23:49.076Z,6.44
2023-02-19T01:26:51.774Z,6.39
2023-02-19T01:29:54.781Z,6.43
2023-02-19T01:32:57.571Z,6.55
2023-02-19T01:36:03.755Z,6.40
2023-02-19T01:39:07.227Z,6.31
2023-02-19T01:42:17.057Z,6.18
2023-02-19T01:45:25.184Z,6.14
2023-02-19T01:48:36.887Z,5.96
2023-02-19T01:52:04.181Z,5.77
2023-02-19T01:55:10.870Z,5.57
2023-02-19T01:58:15.765Z,5.48
2023-02-19T02:01:18.892Z,5.51
2023-02-19T02:04:21.951Z,5.44
2023-02-19T02:07:43.235Z,5.21
2023-02-19T02:10:47.665Z,5.13
2023-02-19T02:13:51.616Z,5.10
2023-02-19T02:17:15.887Z,5.03
2023-02-19T02:20:44.510Z,5.00
2023-02-19T02:24:05.475Z,5.25
2023-02-19T02:27:53.664Z,5.44
2023-02-19T02:31:02.781Z,5.60
2023-02-19T02:34:20.741Z,5.69
2023-02-19T02:37:27.136Z,5.77
2023-02-19T02:40:30.692Z,5.84
2023-02-19T02:43:33.994Z,5.94
2023-02-19T02:46:41.718Z,6.06
2023-02-19T02:50:05.221Z,6.17
2023-02-19T02:53:53.167Z,6.28
2023-02-19T02:56:57.932Z,5.99
2023-02-19T03:00:01.775Z,5.73
2023-02-19T03:03:05.540Z,5.49
2023-02-19T03:06:12.567Z,5.47
2023-02-19T03:09:30.282Z,5.51
2023-02-19T03:12:57.305Z,5.54
2023-02-19T03:16:27.176Z,5.72
2023-02-19T03:19:34.571Z,5.54
2023-02-19T03:22:38.824Z,5.27
2023-02-19T03:26:01.636Z,4.98
2023-02-19T03:29:23.313Z,4.83
2023-02-19T03:32:45.655Z,5.10
2023-02-19T03:36:00.809Z,5.27
2023-02-19T03:39:07.234Z,5.49
2023-02-19T03:42:18.043Z,5.54
2023-02-19T03:45:30.056Z,5.63
2023-02-19T03:48:38.650Z,5.68
2023-02-19T03:51:48.651Z,5.79
2023-02-19T03:55:12.330Z,5.70
2023-02-19T03:58:35.593Z,5.56
2023-02-19T04:01:44.690Z,5.29
2023-02-19T04:04:56.484Z,5.22
2023-02-19T04:08:06.346Z,5.07
2023-02-19T04:11:12.192Z,5.01
2023-02-19T04:14:21.005Z,4.90
2023-02-19T04:17:29.589Z,4.68
2023-02-19T04:20:36.851Z,4.64
2023-02-19T04:23:44.667Z,4.52
2023-02-19T04:26:48.219Z,4.43
2023-02-19T04:29:51.223Z,4.47
2023-02-19T04:32:54.048Z,4.75
2023-02-19T04:35:57.028Z,4.95
2023-02-19T04:39:00.043Z,5.21
2023-02-19T04:42:04.448Z,5.30
2023-02-19T04:45:07.536Z,5.48
2023-02-19T04:48:10.704Z,5.44
2023-02-19T04:51:13.707Z,5.33
2023-02-19T04:54:16.724Z,5.27
2023-02-19T04:57:19.573Z,5.21
2023-02-19T05:00:22.681Z,5.06
2023-02-19T05:03:25.655Z,5.00
2023-02-19T05:06:28.766Z,5.08
2023-02-19T05:09:32.687Z,5.13
2023-02-19T05:12:35.734Z,5.26
2023-02-19T05:15:38.437Z,5.25
2023-02-19T05:18:43.109Z,5.45
2023-02-19T05:21:45.831Z,5.62
2023-02-19T05:24:48.845Z,5.60
2023-02-19T05:28:11.595Z,5.69
2023-02-19T05:31:15.236Z,5.60
2023-02-19T05:34:17.976Z,5.62
2023-02-19T05:37:20.917Z,5.59
2023-02-19T05:40:26.130Z,5.57
2023-02-19T05:43:29.098Z,5.54
2023-02-19T05:46:32.009Z,5.47
2023-02-19T05:49:35.284Z,5.48
2023-02-19T05:52:37.983Z,5.46
2023-02-19T05:55:40.931Z,5.30
2023-02-19T05:58:43.661Z,5.29
2023-02-19T06:01:47.452Z,5.21
2023-02-19T06:04:50.416Z,5.13
2023-02-19T06:07:53.041Z,5.08
2023-02-19T06:10:56.130Z,5.05
2023-02-19T06:13:59.080Z,5.01
2023-02-19T06:17:02.109Z,5.07
2023-02-19T06:20:05.606Z,5.03
2023-02-19T06:23:08.633Z,5.05
2023-02-19T06:26:20.185Z,5.11
2023-02-19T06:29:23.188Z,5.26
2023-02-19T06:32:26.008Z,5.34
2023-02-19T06:35:29.026Z,5.37
2023-02-19T06:38:31.916Z,5.61
2023-02-19T06:41:35.340Z,5.69
2023-02-19T06:44:38.076Z,5.77
2023-02-19T06:47:41.020Z,5.79
2023-02-19T06:50:43.710Z,5.85
2023-02-19T06:53:46.796Z,5.87
2023-02-19T06:56:49.403Z,5.94
2023-02-19T06:59:52.421Z,6.03
2023-02-19T07:02:56.716Z,6.02
2023-02-19T07:06:00.940Z,6.05
2023-02-19T07:09:05.338Z,6.07
2023-02-19T07:12:08.430Z,6.02
2023-02-19T07:15:11.079Z,6.03
2023-02-19T07:18:14.062Z,6.04
2023-02-19T07:21:18.097Z,6.14
2023-02-19T07:24:22.468Z,6.20
2023-02-19T07:27:25.089Z,6.24
2023-02-19T07:30:28.211Z,6.27
2023-02-19T07:33:31.163Z,6.29
2023-02-19T07:36:34.150Z,6.33
2023-02-19T07:39:37.278Z,6.32
2023-02-19T07:42:40.428Z,6.34
2023-02-19T07:45:43.119Z,6.48
2023-02-19T07:48:46.541Z,6.51
2023-02-19T07:51:49.304Z,6.52
2023-02-19T07:54:52.333Z,6.41
2023-02-19T07:57:55.231Z,6.47
2023-02-19T08:00:58.393Z,6.45
2023-02-19T08:04:01.409Z,6.44
2023-02-19T08:07:05.438Z,6.56
2023-02-19T08:10:27.897Z,6.65
2023-02-19T08:13:31.932Z,6.68
2023-02-19T08:16:42.962Z,6.73
2023-02-19T08:19:46.078Z,6.93
2023-02-19T08:22:49.212Z,7.05
2023-02-19T08:25:53.461Z,7.27
2023-02-19T08:28:56.490Z,7.47
2023-02-19T08:31:59.199Z,7.65
2023-02-19T08:35:02.163Z,7.74
2023-02-19T08:38:06.476Z,7.72
2023-02-19T08:41:12.824Z,7.72
2023-02-19T08:44:16.110Z,7.72
2023-02-19T08:47:19.105Z,7.74
2023-02-19T08:50:22.487Z,7.70
2023-02-19T08:53:25.829Z,7.80
2023-02-19T08:56:28.729Z,7.80
2023-02-19T08:59:32.234Z,7.91
2023-02-19T09:02:35.673Z,8.19
2023-02-19T09:05:39.672Z,8.46
2023-02-19T09:08:42.588Z,8.77
2023-02-19T09:11:47.395Z,9.13
2023-02-19T09:14:51.283Z,9.38
2023-02-19T09:17:54.259Z,9.54
2023-02-19T09:21:04.772Z,9.59
2023-02-19T09:24:09.408Z,9.75
2023-02-19T09:27:18.022Z,9.99
2023-02-19T09:30:21.436Z,10.13
2023-02-19T09:33:24.201Z,10.07
2023-02-19T09:36:27.347Z,10.31
2023-02-19T09:39:30.004Z,10.27
2023-02-19T09:42:33.452Z,10.44
2023-02-19T09:45:38.212Z,10.61
2023-02-19T09:48:41.292Z,10.67
2023-02-19T09:51:56.543Z,10.61
2023-02-19T09:55:24.416Z,10.80
2023-02-19T09:58:32.238Z,10.65
2023-02-19T10:01:39.258Z,10.96
2023-02-19T10:04:44.299Z,11.36
2023-02-19T10:07:50.971Z,11.59
2023-02-19T10:10:54.937Z,11.65
2023-02-19T10:14:13.691Z,11.85
2023-02-19T10:17:24.555Z,11.93
2023-02-19T10:20:28.575Z,11.92
2023-02-19T10:23:32.501Z,11.85
2023-02-19T10:26:36.847Z,11.71
2023-02-19T10:29:40.132Z,11.19
2023-02-19T10:32:59.861Z,11.30
2023-02-19T10:36:06.751Z,11.40
2023-02-19T10:39:35.655Z,11.67
2023-02-19T10:42:46.461Z,12.17
2023-02-19T10:45:50.559Z,12.61
2023-02-19T10:49:04.116Z,12.83
2023-02-19T10:52:18.813Z,12.86
2023-02-19T10:55:30.884Z,12.91
2023-02-19T10:58:37.880Z,12.76
2023-02-19T11:01:56.268Z,12.97
2023-02-19T11:05:09.351Z,12.66
2023-02-19T11:08:22.134Z,12.64
2023-02-19T11:11:37.106Z,13.00
2023-02-19T11:14:45.119Z,13.27
2023-02-19T11:18:14.622Z,13.39
2023-02-19T11:21:33.098Z,13.63
2023-02-19T11:24:38.404Z,13.52
2023-02-19T11:28:07.448Z,13.74
2023-02-19T11:31:35.447Z,13.71
2023-02-19T11:34:39.239Z,13.58
2023-02-19T11:38:00.536Z,13.87
2023-02-19T11:41:14.109Z,14.04
2023-02-19T11:44:19.940Z,13.97
2023-02-19T11:48:00.829Z,14.08
2023-02-19T11:51:15.931Z,13.90
2023-02-19T11:54:34.081Z,13.34
2023-02-19T11:57:51.563Z,13.11
2023-02-19T12:01:22.061Z,13.06
2023-02-19T12:04:46.704Z,13.35
2023-02-19T12:07:52.174Z,13.68
2023-02-19T12:11:20.205Z,13.33
2023-02-19T12:14:41.104Z,13.01
2023-02-19T12:17:44.077Z,13.12
2023-02-19T12:20:51.818Z,13.11
2023-02-19T12:24:08.368Z,13.21
2023-02-19T12:27:11.071Z,13.15
2023-02-19T12:30:33.579Z,13.14
2023-02-19T12:34:15.368Z,13.39
2023-02-19T12:37:27.509Z,13.37
2023-02-19T12:40:49.349Z,13.41
2023-02-19T12:44:01.773Z,13.74
2023-02-19T12:47:06.995Z,13.82
2023-02-19T12:50:23.712Z,13.77
2023-02-19T12:53:47.616Z,14.11
2023-02-19T12:57:08.918Z,14.32
2023-02-19T13:00:29.616Z,14.94
2023-02-19T13:03:39.459Z,15.19
2023-02-19T13:07:09.631Z,14.90
2023-02-19T13:10:40.062Z,14.65
2023-02-19T13:14:09.198Z,14.78
2023-02-19T13:17:35.866Z,15.00
2023-02-19T13:20:42.429Z,14.85
2023-02-19T13:24:02.963Z,14.89
2023-02-19T13:27:21.043Z,14.62
2023-02-19T13:31:03.393Z,14.83
2023-02-19T13:34:15.433Z,14.83
2023-02-19T13:37:19.467Z,14.59
2023-02-19T13:40:39.408Z,14.17
2023-02-19T13:43:43.514Z,13.82
2023-02-19T13:46:48.292Z,13.56
2023-02-19T13:49:52.289Z,13.78
2023-02-19T13:52:56.560Z,13.82
2023-02-19T13:55:59.895Z,13.83
2023-02-19T13:59:25.276Z,14.08
2023-02-19T14:02:31.889Z,13.80
2023-02-19T14:06:01.906Z,13.63
2023-02-19T14:09:04.629Z,13.73
2023-02-19T14:12:07.754Z,13.82
2023-02-19T14:15:25.701Z,13.88
2023-02-19T14:18:43.582Z,14.04
2023-02-19T14:21:46.556Z,14.05
2023-02-19T14:24:50.116Z,14.08
2023-02-19T14:27:55.201Z,14.10
2023-02-19T14:31:26.913Z,14.13
2023-02-19T14:34:30.105Z,14.22
2023-02-19T14:37:34.150Z,14.15
2023-02-19T14:40:41.741Z,14.12
2023-02-19T14:43:49.313Z,14.13
2023-02-19T14:47:05.121Z,14.04
2023-02-19T14:50:19.853Z,14.08
2023-02-19T14:53:24.728Z,14.02
2023-02-19T14:56:33.420Z,13.97
2023-02-19T14:59:36.392Z,13.83
2023-02-19T15:02:43.225Z,13.83
2023-02-19T15:05:46.145Z,13.82
2023-02-19T15:08:58.239Z,13.76
2023-02-19T15:12:02.872Z,13.66
2023-02-19T15:15:07.250Z,13.54
2023-02-19T15:18:25.803Z,13.49
2023-02-19T15:21:32.992Z,13.40
2023-02-19T15:24:36.410Z,13.34
2023-02-19T15:27:39.894Z,13.27
2023-02-19T15:30:43.140Z,13.21
2023-02-19T15:33:52.601Z,13.01
2023-02-19T15:37:02.164Z,12.93
2023-02-19T15:40:07.714Z,12.83
2023-02-19T15:43:25.173Z,12.69
2023-02-19T15:46:28.935Z,12.58
2023-02-19T15:49:46.807Z,12.42
2023-02-19T15:53:05.420Z,12.33
2023-02-19T15:56:15.842Z,12.36
2023-02-19T15:59:31.804Z,12.26
2023-02-19T16:02:35.984Z,12.23
2023-02-19T16:05:41.832Z,12.17
2023-02-19T16:09:07.187Z,12.14
2023-02-19T16:12:22.743Z,12.10
2023-02-19T16:15:27.316Z,11.84
2023-02-19T16:18:31.265Z,12.01
2023-02-19T16:21:34.272Z,11.99
2023-02-19T16:24:45.323Z,11.96
2023-02-19T16:27:48.282Z,11.97
2023-02-19T16:30:58.953Z,11.98
2023-02-19T16:34:18.737Z,11.98
2023-02-19T16:37:35.525Z,11.93
2023-02-19T16:40:54.355Z,11.87
2023-02-19T16:43:57.664Z,11.97
2023-02-19T16:47:06.139Z,11.97
2023-02-19T16:50:16.367Z,11.95
2023-02-19T16:53:22.258Z,12.06
2023-02-19T16:56:25.859Z,11.96
2023-02-19T16:59:28.631Z,11.84
2023-02-19T17:02:33.430Z,11.79
2023-02-19T17:05:37.766Z,11.78
2023-02-19T17:08:44.273Z,11.75
2023-02-19T17:11:47.363Z,11.77
2023-02-19T17:14:50.660Z,11.70
2023-02-19T17:17:53.628Z,11.48
2023-02-19T17:21:15.535Z,11.41
2023-02-19T17:24:18.877Z,11.22
2023-02-19T17:27:22.911Z,11.20
2023-02-19T17:30:30.334Z,11.14
2023-02-19T17:33:33.354Z,11.03
2023-02-19T17:36:38.021Z,11.03
2023-02-19T17:39:41.050Z,10.91
2023-02-19T17:42:44.416Z,10.77
2023-02-19T17:45:47.732Z,10.69
2023-02-19T17:48:51.114Z,10.68
2023-02-19T17:51:54.639Z,10.58
2023-02-19T17:54:58.076Z,10.59
2023-02-19T17:58:01.392Z,10.51
2023-02-19T18:01:04.623Z,10.27
2023-02-19T18:04:08.009Z,10.16
2023-02-19T18:07:14.264Z,10.04
2023-02-19T18:10:19.719Z,9.86
2023-02-19T18:13:22.824Z,9.64
2023-02-19T18:16:26.443Z,9.49
2023-02-19T18:19:29.420Z,9.44
2023-02-19T18:22:32.586Z,9.37
2023-02-19T18:25:35.621Z,9.19
2023-02-19T18:28:40.028Z,8.97
2023-02-19T18:31:43.086Z,8.82
2023-02-19T18:34:52.283Z,8.64
2023-02-19T18:37:55.953Z,8.50
2023-02-19T18:40:59.529Z,8.43
2023-02-19T18:44:03.259Z,8.24
2023-02-19T18:47:08.030Z,8.15
2023-02-19T18:50:11.586Z,8.09
2023-02-19T18:53:15.100Z,8.07
2023-02-19T18:56:18.288Z,8.04
2023-02-19T18:59:21.985Z,8.03
2023-02-19T19:02:25.098Z,7.94
2023-02-19T19:05:28.536Z,7.83
2023-02-19T19:08:32.688Z,7.80
2023-02-19T19:11:36.378Z,7.84
2023-02-19T19:14:39.668Z,7.86
2023-02-19T19:17:45.764Z,7.78
2023-02-19T19:20:49.224Z,7.79
2023-02-19T19:23:52.581Z,7.74
2023-02-19T19:26:55.590Z,7.78
2023-02-19T19:29:59.095Z,7.81
2023-02-19T19:33:03.588Z,7.86
2023-02-19T19:36:07.489Z,7.87
2023-02-19T19:39:10.662Z,7.83
2023-02-19T19:42:13.628Z,7.73
2023-02-19T19:45:16.556Z,7.65
2023-02-19T19:48:20.304Z,7.75
2023-02-19T19:51:23.526Z,7.64
2023-02-19T19:54:27.498Z,7.52
2023-02-19T19:57:30.499Z,7.40
2023-02-19T20:00:34.747Z,7.32
2023-02-19T20:03:41.135Z,7.40
2023-02-19T20:06:44.126Z,7.40
2023-02-19T20:09:49.128Z,7.29
2023-02-19T20:12:52.058Z,7.25
2023-02-19T20:15:56.380Z,7.20
2023-02-19T20:18:59.096Z,7.13
2023-02-19T20:22:02.458Z,7.09
2023-02-19T20:25:05.551Z,7.14
2023-02-19T20:28:08.843Z,7.21
2023-02-19T20:31:12.255Z,7.19
2023-02-19T20:34:16.544Z,7.14
2023-02-19T20:37:19.514Z,7.15
2023-02-19T20:40:27.448Z,7.11
2023-02-19T20:43:30.468Z,7.05
2023-02-19T20:46:33.732Z,6.94
2023-02-19T20:49:37.049Z,6.94
2023-02-19T20:52:40.328Z,6.95
2023-02-19T20:55:43.232Z,6.90
2023-02-19T20:58:46.210Z,6.84
2023-02-19T21:01:49.517Z,6.79
2023-02-19T21:04:52.876Z,6.80
2023-02-19T21:07:55.877Z,6.73
2023-02-19T21:10:59.153Z,6.61
2023-02-19T21:14:02.328Z,6.61
2023-02-19T21:17:06.056Z,6.63
2023-02-19T21:20:10.452Z,6.58
2023-02-19T21:23:15.018Z,6.56
2023-02-19T21:26:18.051Z,6.56
2023-02-19T21:29:22.905Z,6.52
2023-02-19T21:32:25.876Z,6.50
2023-02-19T21:35:29.341Z,6.49
2023-02-19T21:38:32.783Z,6.48
2023-02-19T21:41:36.352Z,6.48
2023-02-19T21:44:39.066Z,6.42
2023-02-19T21:47:43.166Z,6.42
2023-02-19T21:50:46.050Z,6.35
2023-02-19T21:53:49.673Z,6.30
2023-02-19T21:56:53.880Z,6.25
2023-02-19T21:59:56.844Z,6.18
2023-02-19T22:02:59.679Z,6.10
2023-02-19T22:06:02.715Z,5.98
2023-02-19T22:09:06.611Z,5.99
2023-02-19T22:12:09.577Z,5.98
2023-02-19T22:15:12.350Z,5.90
2023-02-19T22:18:15.400Z,5.82
2023-02-19T22:21:19.059Z,5.87
2023-02-19T22:24:22.910Z,5.94
2023-02-19T22:27:25.672Z,5.98
2023-02-19T22:30:29.549Z,6.00
2023-02-19T22:33:32.271Z,5.88
2023-02-19T22:36:39.089Z,5.84
2023-02-19T22:39:41.971Z,5.69
2023-02-19T22:42:45.105Z,5.68
2023-02-19T22:45:47.986Z,5.63
2023-02-19T22:48:51.358Z,5.60
2023-02-19T22:52:01.158Z,5.57
2023-02-19T22:55:04.372Z,5.54
2023-02-19T22:58:07.068Z,5.48
2023-02-19T23:01:12.283Z,5.39
2023-02-19T23:04:15.700Z,5.27
2023-02-19T23:07:18.648Z,5.33
2023-02-19T23:10:21.456Z,5.33
2023-02-19T23:13:24.477Z,5.37
2023-02-19T23:16:27.633Z,5.28
2023-02-19T23:19:31.095Z,5.10
2023-02-19T23:22:35.191Z,5.09
2023-02-19T23:25:38.200Z,5.11
2023-02-19T23:28:42.041Z,5.04
2023-02-19T23:31:45.238Z,5.00
2023-02-19T23:34:48.388Z,5.01
2023-02-19T23:37:51.404Z,5.01
2023-02-19T23:40:54.508Z,4.89
2023-02-19T23:43:57.462Z,4.86
2023-02-19T23:47:00.238Z,4.82
2023-02-19T23:50:03.257Z,4.77
2023-02-19T23:53:07.820Z,4.68
2023-02-19T23:56:11.234Z,4.59
2023-02-19T23:59:14.465Z,4.69
